sensor_id;sensor_type;location;lat;lon;timestamp;P1;durP1;ratioP1;P2;durP2;ratioP2
6862;SDS011;3470;48.738;9.616;2023-04-15T17:48:38;3.93;;;3.30;;
6862;SDS011;3470;48.738;9.616;2023-04-15T17:51:05;5.20;;;3.83;;
6862;SDS011;3470;48.738;9.616;2023-04-15T17:53:30;5.73;;;4.20;;
6862;SDS011;3470;48.738;9.616;2023-04-15T17:55:56;6.37;;;3.77;;
6862;SDS011;3470;48.738;9.616;2023-04-15T18:54:55;2.20;;;2.00;;
6862;SDS011;3470;48.738;9.616;2023-04-15T18:57:20;2.03;;;1.83;;
6862;SDS011;3470;48.738;9.616;2023-04-15T18:59:46;1.87;;;1.70;;
6862;SDS011;3470;48.738;9.616;2023-04-15T19:02:11;1.90;;;1.70;;
6862;SDS011;3470;48.738;9.616;2023-04-15T19:04:37;2.30;;;2.10;;
6862;SDS011;3470;48.738;9.616;2023-04-15T19:07:03;1.73;;;1.63;;
6862;SDS011;3470;48.738;9.616;2023-04-15T19:09:28;2.27;;;2.07;;
6862;SDS011;3470;48.738;9.616;2023-04-15T19:11:54;1.90;;;1.80;;
6862;SDS011;3470;48.738;9.616;2023-04-15T19:14:20;1.97;;;1.87;;
6862;SDS011;3470;48.738;9.616;2023-04-15T19:16:46;2.20;;;2.00;;
6862;SDS011;3470;48.738;9.616;2023-04-15T19:19:12;2.20;;;2.00;;
6862;SDS011;3470;48.738;9.616;2023-04-15T19:21:38;2.30;;;2.10;;
6862;SDS011;3470;48.738;9.616;2023-04-15T19:24:04;2.50;;;2.30;;
6862;SDS011;3470;48.738;9.616;2023-04-15T19:26:30;6.43;;;5.83;;
6862;SDS011;3470;48.738;9.616;2023-04-15T19:28:56;3.13;;;2.87;;
6862;SDS011;3470;48.738;9.616;2023-04-15T19:31:22;5.00;;;4.60;;
6862;SDS011;3470;48.738;9.616;2023-04-15T19:33:49;3.50;;;2.60;;
6862;SDS011;3470;48.738;9.616;2023-04-15T19:36:18;2.73;;;2.53;;
6862;SDS011;3470;48.738;9.616;2023-04-15T19:38:43;4.67;;;4.30;;
6862;SDS011;3470;48.738;9.616;2023-04-15T19:41:09;2.60;;;2.37;;
6862;SDS011;3470;48.738;9.616;2023-04-15T19:43:35;2.67;;;2.43;;
6862;SDS011;3470;48.738;9.616;2023-04-15T19:46:01;2.47;;;2.27;;
6862;SDS011;3470;48.738;9.616;2023-04-15T19:48:26;2.10;;;2.00;;
6862;SDS011;3470;48.738;9.616;2023-04-15T19:50:52;2.70;;;2.50;;
6862;SDS011;3470;48.738;9.616;2023-04-15T19:53:17;2.13;;;1.93;;
6862;SDS011;3470;48.738;9.616;2023-04-15T19:55:43;2.97;;;2.77;;
6862;SDS011;3470;48.738;9.616;2023-04-15T19:58:09;2.23;;;2.03;;
6862;SDS011;3470;48.738;9.616;2023-04-15T20:00:35;2.23;;;2.03;;
6862;SDS011;3470;48.738;9.616;2023-04-15T20:03:00;2.47;;;2.27;;
6862;SDS011;3470;48.738;9.616;2023-04-15T20:05:26;2.57;;;2.37;;
6862;SDS011;3470;48.738;9.616;2023-04-15T20:07:52;2.23;;;2.07;;
6862;SDS011;3470;48.738;9.616;2023-04-15T20:10:18;2.53;;;2.17;;
6862;SDS011;3470;48.738;9.616;2023-04-15T20:12:44;2.40;;;2.10;;
6862;SDS011;3470;48.738;9.616;2023-04-15T20:15:10;2.40;;;2.13;;
6862;SDS011;3470;48.738;9.616;2023-04-15T20:17:36;2.10;;;1.83;;
6862;SDS011;3470;48.738;9.616;2023-04-15T20:20:02;2.13;;;2.00;;
6862;SDS011;3470;48.738;9.616;2023-04-15T20:22:29;2.40;;;2.20;;
6862;SDS011;3470;48.738;9.616;2023-04-15T20:24:55;2.37;;;2.17;;
6862;SDS011;3470;48.738;9.616;2023-04-15T20:27:21;2.53;;;2.00;;
6862;SDS011;3470;48.738;9.616;2023-04-15T20:29:46;2.37;;;2.17;;
6862;SDS011;3470;48.738;9.616;2023-04-15T20:32:13;2.60;;;2.20;;
6862;SDS011;3470;48.738;9.616;2023-04-15T20:34:38;2.73;;;2.53;;
6862;SDS011;3470;48.738;9.616;2023-04-15T20:37:04;2.70;;;2.50;;
6862;SDS011;3470;48.738;9.616;2023-04-15T20:39:31;2.97;;;2.77;;
6862;SDS011;3470;48.738;9.616;2023-04-15T20:41:57;2.90;;;2.70;;
6862;SDS011;3470;48.738;9.616;2023-04-15T20:44:22;2.97;;;2.77;;
6862;SDS011;3470;48.738;9.616;2023-04-15T20:46:48;3.20;;;3.00;;
6862;SDS011;3470;48.738;9.616;2023-04-15T20:49:13;3.70;;;3.20;;
6862;SDS011;3470;48.738;9.616;2023-04-15T20:51:39;3.10;;;2.90;;
6862;SDS011;3470;48.738;9.616;2023-04-15T20:54:05;3.07;;;2.87;;
6862;SDS011;3470;48.738;9.616;2023-04-15T20:56:31;2.60;;;2.40;;
6862;SDS011;3470;48.738;9.616;2023-04-15T20:58:56;3.23;;;2.93;;
6862;SDS011;3470;48.738;9.616;2023-04-15T21:01:22;3.57;;;3.20;;
6862;SDS011;3470;48.738;9.616;2023-04-15T21:03:48;2.40;;;2.20;;
6862;SDS011;3470;48.738;9.616;2023-04-15T21:06:13;2.37;;;2.17;;
6862;SDS011;3470;48.738;9.616;2023-04-15T21:08:39;2.53;;;2.33;;
6862;SDS011;3470;48.738;9.616;2023-04-15T21:11:05;2.40;;;2.20;;
6862;SDS011;3470;48.738;9.616;2023-04-15T21:13:30;2.70;;;2.50;;
6862;SDS011;3470;48.738;9.616;2023-04-15T21:15:56;3.07;;;2.77;;
6862;SDS011;3470;48.738;9.616;2023-04-15T21:18:21;3.73;;;3.43;;
6862;SDS011;3470;48.738;9.616;2023-04-15T21:20:57;3.87;;;3.27;;
6862;SDS011;3470;48.738;9.616;2023-04-15T21:23:24;4.13;;;3.83;;
6862;SDS011;3470;48.738;9.616;2023-04-15T21:25:52;4.80;;;4.40;;
6862;SDS011;3470;48.738;9.616;2023-04-15T21:28:18;4.20;;;3.80;;
6862;SDS011;3470;48.738;9.616;2023-04-15T21:30:43;4.67;;;4.27;;
6862;SDS011;3470;48.738;9.616;2023-04-15T21:33:10;4.30;;;3.90;;
6862;SDS011;3470;48.738;9.616;2023-04-15T21:35:35;4.60;;;4.20;;
6862;SDS011;3470;48.738;9.616;2023-04-15T21:38:01;5.37;;;4.87;;
6862;SDS011;3470;48.738;9.616;2023-04-15T21:40:26;5.07;;;4.57;;
6862;SDS011;3470;48.738;9.616;2023-04-15T21:42:52;5.37;;;4.87;;
6862;SDS011;3470;48.738;9.616;2023-04-15T21:45:17;5.73;;;5.23;;
6862;SDS011;3470;48.738;9.616;2023-04-15T21:47:43;5.80;;;5.30;;
6862;SDS011;3470;48.738;9.616;2023-04-15T21:50:09;6.80;;;6.10;;
6862;SDS011;3470;48.738;9.616;2023-04-15T21:52:34;6.77;;;6.13;;
6862;SDS011;3470;48.738;9.616;2023-04-15T21:55:00;7.57;;;6.87;;
6862;SDS011;3470;48.738;9.616;2023-04-15T21:57:25;7.20;;;6.60;;
6862;SDS011;3470;48.738;9.616;2023-04-15T21:59:51;8.97;;;8.07;;
6862;SDS011;3470;48.738;9.616;2023-04-15T22:02:17;8.23;;;7.40;;
6862;SDS011;3470;48.738;9.616;2023-04-15T22:04:42;9.00;;;8.13;;
6862;SDS011;3470;48.738;9.616;2023-04-15T22:07:08;11.17;;;8.43;;
6862;SDS011;3470;48.738;9.616;2023-04-15T22:09:33;8.70;;;7.80;;
6862;SDS011;3470;48.738;9.616;2023-04-15T22:11:59;8.93;;;8.13;;
6862;SDS011;3470;48.738;9.616;2023-04-15T22:14:25;10.33;;;9.27;;
6862;SDS011;3470;48.738;9.616;2023-04-15T22:16:50;10.37;;;9.47;;
6862;SDS011;3470;48.738;9.616;2023-04-15T22:19:16;10.07;;;9.10;;
6862;SDS011;3470;48.738;9.616;2023-04-15T22:21:42;12.13;;;11.03;;
6862;SDS011;3470;48.738;9.616;2023-04-15T22:24:08;12.07;;;10.23;;
6862;SDS011;3470;48.738;9.616;2023-04-15T22:26:33;11.53;;;10.43;;
6862;SDS011;3470;48.738;9.616;2023-04-15T22:28:59;11.60;;;10.40;;
6862;SDS011;3470;48.738;9.616;2023-04-15T22:31:24;10.93;;;9.83;;
6862;SDS011;3470;48.738;9.616;2023-04-15T22:33:50;8.63;;;7.83;;
6862;SDS011;3470;48.738;9.616;2023-04-15T22:36:15;9.30;;;8.30;;
6862;SDS011;3470;48.738;9.616;2023-04-15T22:38:41;9.07;;;7.57;;
6862;SDS011;3470;48.738;9.616;2023-04-15T22:41:06;8.13;;;7.23;;
6862;SDS011;3470;48.738;9.616;2023-04-15T22:43:33;6.97;;;6.27;;
6862;SDS011;3470;48.738;9.616;2023-04-15T22:45:59;7.43;;;6.73;;
6862;SDS011;3470;48.738;9.616;2023-04-15T22:48:24;7.40;;;6.70;;
6862;SDS011;3470;48.738;9.616;2023-04-15T22:50:50;7.47;;;6.70;;
6862;SDS011;3470;48.738;9.616;2023-04-15T22:53:16;8.10;;;7.30;;
6862;SDS011;3470;48.738;9.616;2023-04-15T22:55:45;8.30;;;7.50;;
6862;SDS011;3470;48.738;9.616;2023-04-15T22:58:12;7.53;;;6.83;;
6862;SDS011;3470;48.738;9.616;2023-04-15T23:00:38;9.30;;;8.40;;
6862;SDS011;3470;48.738;9.616;2023-04-15T23:03:04;9.77;;;8.77;;
6862;SDS011;3470;48.738;9.616;2023-04-15T23:05:30;9.97;;;8.63;;
6862;SDS011;3470;48.738;9.616;2023-04-15T23:07:55;9.30;;;7.90;;
6862;SDS011;3470;48.738;9.616;2023-04-15T23:10:21;9.87;;;8.87;;
6862;SDS011;3470;48.738;9.616;2023-04-15T23:12:47;9.67;;;8.60;;
6862;SDS011;3470;48.738;9.616;2023-04-15T23:15:12;10.03;;;9.03;;
6862;SDS011;3470;48.738;9.616;2023-04-15T23:17:38;9.63;;;8.53;;
6862;SDS011;3470;48.738;9.616;2023-04-15T23:20:05;8.93;;;8.03;;
6862;SDS011;3470;48.738;9.616;2023-04-15T23:22:32;9.33;;;8.40;;
6862;SDS011;3470;48.738;9.616;2023-04-15T23:25:01;8.87;;;7.97;;
6862;SDS011;3470;48.738;9.616;2023-04-15T23:27:30;9.43;;;8.40;;
6862;SDS011;3470;48.738;9.616;2023-04-15T23:29:55;10.20;;;8.70;;
6862;SDS011;3470;48.738;9.616;2023-04-15T23:32:21;9.90;;;8.73;;
6862;SDS011;3470;48.738;9.616;2023-04-15T23:34:46;10.03;;;9.00;;
6862;SDS011;3470;48.738;9.616;2023-04-15T23:37:13;10.10;;;9.10;;
6862;SDS011;3470;48.738;9.616;2023-04-15T23:39:41;10.97;;;9.23;;
6862;SDS011;3470;48.738;9.616;2023-04-15T23:42:07;10.00;;;9.00;;
6862;SDS011;3470;48.738;9.616;2023-04-15T23:44:32;11.07;;;9.10;;
6862;SDS011;3470;48.738;9.616;2023-04-15T23:46:58;9.30;;;8.40;;
6862;SDS011;3470;48.738;9.616;2023-04-15T23:49:23;9.60;;;8.43;;
6862;SDS011;3470;48.738;9.616;2023-04-15T23:51:49;8.73;;;7.83;;
